Vineyard Lady — WDI6483 — position and weather

sailwx.info

Track history (hours):
 
Tides and Currents Weather Stations Pressure Air Temp Water Temp Dewpoint Dewpoint Depression Visibility Wind Speed Wind Dir Waves Ship Positions

Vineyard Lady

Owner: Hyannis Harbor Tours, Hyannis, MA. More information available from US FCC via Universal Licensing System and Coast Guard Vessel Documentation Center.

Last reported at 2017-Sep-23 23:55 UTC. Time now 2017-Sep-24 08:39 UTC.
Position N 41°39' W 070°17'.

Length 28 m.

Type: High speed craft. MMSI: 367719150.

Date/timePositionNaut miles runAvg speedWind from/ knotsBaromVisibWave heightAir tempDewpointWater temp
2017-Sep-23 23:55N 41°39' W 070°17'2 4.3
2017-Sep-23 23:29N 41°37' W 070°17'1123.2
2017-Sep-23 23:00N 41°30' W 070°28'  
2017-Sep-19 00:02N 41°39' W 070°17'0 0.0
2017-Sep-19 00:00N 41°39' W 070°17'1 2.5
2017-Sep-18 23:30N 41°38' W 070°16'1324.3
2017-Sep-18 22:58N 41°29' W 070°29'1 2.3
2017-Sep-18 22:19N 41°28' W 070°31'823.1
2017-Sep-18 21:57N 41°33' W 070°22'716.0
2017-Sep-18 21:30N 41°39' W 070°17'1 1.8
2017-Sep-18 21:01N 41°38' W 070°16'1122.3
2017-Sep-18 20:30N 41°30' W 070°27'3 0.7
2017-Sep-18 16:10N 41°32' W 070°24'424.6
2017-Sep-18 16:00N 41°35' W 070°20'5 9.8
2017-Sep-18 15:30N 41°39' W 070°17'2 4.5
2017-Sep-18 15:00N 41°37' W 070°18'6 4.4
2017-Sep-18 13:35N 41°33' W 070°24'222.0
2017-Sep-18 13:30N 41°33' W 070°22'712.9
2017-Sep-18 12:58N 41°39' W 070°17'0 0.0
2017-Sep-18 12:30N 41°39' W 070°17'0 0.0
2017-Sep-18 00:31N 41°39' W 070°17'0 0.0
2017-Sep-18 00:30N 41°39' W 070°17'0 0.2
2017-Sep-18 00:00N 41°39' W 070°17'1 2.0
2017-Sep-17 23:31N 41°38' W 070°16'6 4.1
2017-Sep-17 21:56N 41°33' W 070°22'716.4
2017-Sep-17 21:30N 41°39' W 070°17'1 1.6
2017-Sep-17 21:00N 41°38' W 070°16'1222.2
2017-Sep-17 20:29N 41°30' W 070°28'5 1.2
2017-Sep-17 16:04N 41°33' W 070°22'226.1
2017-Sep-17 16:01N 41°34' W 070°20'510.6
2017-Sep-17 15:30N 41°39' W 070°17'3 6.7
2017-Sep-17 15:01N 41°36' W 070°18'4 2.7
2017-Sep-17 13:31N 41°33' W 070°22'022.6
2017-Sep-17 13:30N 41°33' W 070°22'713.6
2017-Sep-17 13:00N 41°39' W 070°17'0 0.0
2017-Sep-17 12:30N 41°39' W 070°17'0 0.2
2017-Sep-17 12:00N 41°39' W 070°17'17 0.8
2017-Sep-16 14:19N 41°28' W 070°34'0 0.0
2017-Sep-16 14:00N 41°28' W 070°34'1321.7
2017-Sep-16 13:24N 41°35' W 070°19'5 0.3
2017-Sep-16 00:14N 41°39' W 070°17'0 0.3
2017-Sep-16 00:00N 41°39' W 070°17'2 3.3
2017-Sep-15 23:31N 41°37' W 070°17'6 4.2
2017-Sep-15 22:01N 41°33' W 070°23'122.2
2017-Sep-15 21:59N 41°33' W 070°22'714.6
2017-Sep-15 21:31N 41°39' W 070°17'1 1.6
2017-Sep-15 21:00N 41°38' W 070°16'1223.2
2017-Sep-15 20:30N 41°30' W 070°27'5 1.1
2017-Sep-15 16:05N 41°33' W 070°22'224.3
2017-Sep-15 16:00N 41°34' W 070°20'510.5
2017-Sep-15 15:30N 41°39' W 070°17'2 3.1
2017-Sep-15 15:01N 41°37' W 070°17'6 4.1
2017-Sep-15 13:32N 41°33' W 070°22'123.7
2017-Sep-15 13:30N 41°33' W 070°22'713.3
2017-Sep-15 12:59N 41°39' W 070°17'0 0.0
2017-Sep-15 12:30N 41°39' W 070°17'0 0.0
2017-Sep-15 00:13N 41°39' W 070°17'0 0.0
2017-Sep-15 00:00N 41°39' W 070°17'1 2.6
2017-Sep-14 23:31N 41°38' W 070°16'9 5.9
2017-Sep-14 22:04N 41°32' W 070°25'123.1
2017-Sep-14 22:00N 41°33' W 070°23'815.8
2017-Sep-14 21:30N 41°39' W 070°17'1 2.0
2017-Sep-14 21:00N 41°38' W 070°16'6 1.3
2017-Sep-14 16:07N 41°33' W 070°22'324.1
2017-Sep-14 16:01N 41°35' W 070°19'5 9.0
2017-Sep-14 15:30N 41°39' W 070°17'5 9.5
2017-Sep-14 15:00N 41°35' W 070°20'2 1.4
2017-Sep-14 13:33N 41°33' W 070°22'121.5
2017-Sep-14 13:30N 41°34' W 070°21'611.8
2017-Sep-14 13:00N 41°39' W 070°17'0 0.0
2017-Sep-14 12:30N 41°39' W 070°17'0 0.2
2017-Sep-14 12:00N 41°39' W 070°17'  
Track history (hours):
 
Tides and Currents Weather Stations Pressure Air Temp Water Temp Dewpoint Dewpoint Depression Visibility Wind Speed Wind Dir Waves Ship Positions

Vineyard Lady

Owner: Hyannis Harbor Tours, Hyannis, MA. More information available from US FCC via Universal Licensing System and Coast Guard Vessel Documentation Center.

Last reported at 2017-Sep-23 23:55 UTC. Time now 2017-Sep-24 08:39 UTC.
Position N 41°39' W 070°17'.

Length 28 m.

Type: High speed craft. MMSI: 367719150.

Date/timePositionNaut miles runAvg speedWind from/ knotsBaromVisibWave heightAir tempDewpointWater temp
2017-Sep-23 23:55N 41°39' W 070°17'2 4.3
2017-Sep-23 23:29N 41°37' W 070°17'1123.2
2017-Sep-23 23:00N 41°30' W 070°28'  
2017-Sep-19 00:02N 41°39' W 070°17'0 0.0
2017-Sep-19 00:00N 41°39' W 070°17'1 2.5
2017-Sep-18 23:30N 41°38' W 070°16'1324.3
2017-Sep-18 22:58N 41°29' W 070°29'1 2.3
2017-Sep-18 22:19N 41°28' W 070°31'823.1
2017-Sep-18 21:57N 41°33' W 070°22'716.0
2017-Sep-18 21:30N 41°39' W 070°17'1 1.8
2017-Sep-18 21:01N 41°38' W 070°16'1122.3
2017-Sep-18 20:30N 41°30' W 070°27'3 0.7
2017-Sep-18 16:10N 41°32' W 070°24'424.6
2017-Sep-18 16:00N 41°35' W 070°20'5 9.8
2017-Sep-18 15:30N 41°39' W 070°17'2 4.5
2017-Sep-18 15:00N 41°37' W 070°18'6 4.4
2017-Sep-18 13:35N 41°33' W 070°24'222.0
2017-Sep-18 13:30N 41°33' W 070°22'712.9
2017-Sep-18 12:58N 41°39' W 070°17'0 0.0
2017-Sep-18 12:30N 41°39' W 070°17'0 0.0
2017-Sep-18 00:31N 41°39' W 070°17'0 0.0
2017-Sep-18 00:30N 41°39' W 070°17'0 0.2
2017-Sep-18 00:00N 41°39' W 070°17'1 2.0
2017-Sep-17 23:31N 41°38' W 070°16'6 4.1
2017-Sep-17 21:56N 41°33' W 070°22'716.4
2017-Sep-17 21:30N 41°39' W 070°17'1 1.6
2017-Sep-17 21:00N 41°38' W 070°16'1222.2
2017-Sep-17 20:29N 41°30' W 070°28'5 1.2
2017-Sep-17 16:04N 41°33' W 070°22'226.1
2017-Sep-17 16:01N 41°34' W 070°20'510.6
2017-Sep-17 15:30N 41°39' W 070°17'3 6.7
2017-Sep-17 15:01N 41°36' W 070°18'4 2.7
2017-Sep-17 13:31N 41°33' W 070°22'022.6
2017-Sep-17 13:30N 41°33' W 070°22'713.6
2017-Sep-17 13:00N 41°39' W 070°17'0 0.0
2017-Sep-17 12:30N 41°39' W 070°17'0 0.2
2017-Sep-17 12:00N 41°39' W 070°17'17 0.8
2017-Sep-16 14:19N 41°28' W 070°34'0 0.0
2017-Sep-16 14:00N 41°28' W 070°34'1321.7
2017-Sep-16 13:24N 41°35' W 070°19'5 0.3
2017-Sep-16 00:14N 41°39' W 070°17'0 0.3
2017-Sep-16 00:00N 41°39' W 070°17'2 3.3
2017-Sep-15 23:31N 41°37' W 070°17'6 4.2
2017-Sep-15 22:01N 41°33' W 070°23'122.2
2017-Sep-15 21:59N 41°33' W 070°22'714.6
2017-Sep-15 21:31N 41°39' W 070°17'1 1.6
2017-Sep-15 21:00N 41°38' W 070°16'1223.2
2017-Sep-15 20:30N 41°30' W 070°27'5 1.1
2017-Sep-15 16:05N 41°33' W 070°22'224.3
2017-Sep-15 16:00N 41°34' W 070°20'510.5
2017-Sep-15 15:30N 41°39' W 070°17'2 3.1
2017-Sep-15 15:01N 41°37' W 070°17'6 4.1
2017-Sep-15 13:32N 41°33' W 070°22'123.7
2017-Sep-15 13:30N 41°33' W 070°22'713.3
2017-Sep-15 12:59N 41°39' W 070°17'0 0.0
2017-Sep-15 12:30N 41°39' W 070°17'0 0.0
2017-Sep-15 00:13N 41°39' W 070°17'0 0.0
2017-Sep-15 00:00N 41°39' W 070°17'1 2.6
2017-Sep-14 23:31N 41°38' W 070°16'9 5.9
2017-Sep-14 22:04N 41°32' W 070°25'123.1
2017-Sep-14 22:00N 41°33' W 070°23'815.8
2017-Sep-14 21:30N 41°39' W 070°17'1 2.0
2017-Sep-14 21:00N 41°38' W 070°16'6 1.3
2017-Sep-14 16:07N 41°33' W 070°22'324.1
2017-Sep-14 16:01N 41°35' W 070°19'5 9.0
2017-Sep-14 15:30N 41°39' W 070°17'5 9.5
2017-Sep-14 15:00N 41°35' W 070°20'2 1.4
2017-Sep-14 13:33N 41°33' W 070°22'121.5
2017-Sep-14 13:30N 41°34' W 070°21'611.8
2017-Sep-14 13:00N 41°39' W 070°17'0 0.0
2017-Sep-14 12:30N 41°39' W 070°17'0 0.2
2017-Sep-14 12:00N 41°39' W 070°17'  

Dump ship's entire track history